createdAt,value
2018-04-07T00:01:10.882Z,6.31
2018-04-07T00:03:38.339Z,6.36
2018-04-07T00:06:05.800Z,6.35
2018-04-07T00:08:33.306Z,6.34
2018-04-07T00:11:00.767Z,6.27
2018-04-07T00:13:28.246Z,6.28
2018-04-07T00:15:55.705Z,6.37
2018-04-07T00:18:23.162Z,6.21
2018-04-07T00:20:50.646Z,6.29
2018-04-07T00:23:18.099Z,6.29
2018-04-07T00:25:45.578Z,6.20
2018-04-07T00:28:13.052Z,6.08
2018-04-07T00:30:40.508Z,6.16
2018-04-07T00:33:07.984Z,6.01
2018-04-07T00:35:35.546Z,5.88
2018-04-07T00:38:03.014Z,5.89
2018-04-07T00:40:30.518Z,5.90
2018-04-07T00:42:57.991Z,5.94
2018-04-07T00:45:25.443Z,5.93
2018-04-07T00:47:52.957Z,5.90
2018-04-07T00:50:20.458Z,5.87
2018-04-07T00:52:55.825Z,5.88
2018-04-07T00:55:23.271Z,5.79
2018-04-07T00:57:50.732Z,5.79
2018-04-07T01:00:18.382Z,5.90
2018-04-07T01:02:45.844Z,6.00
2018-04-07T01:05:13.343Z,5.87
2018-04-07T01:07:40.855Z,5.72
2018-04-07T01:10:08.330Z,5.66
2018-04-07T01:12:35.803Z,5.59
2018-04-07T01:15:03.331Z,5.51
2018-04-07T01:17:30.791Z,5.59
2018-04-07T01:19:58.289Z,5.53
2018-04-07T01:22:25.755Z,5.55
2018-04-07T01:24:53.208Z,5.63
2018-04-07T01:27:20.697Z,5.59
2018-04-07T01:29:48.157Z,5.53
2018-04-07T01:32:15.639Z,5.54
2018-04-07T01:34:43.124Z,5.51
2018-04-07T01:37:10.584Z,5.48
2018-04-07T01:39:38.045Z,5.41
2018-04-07T01:42:05.657Z,5.30
2018-04-07T01:44:33.239Z,5.39
2018-04-07T01:47:00.804Z,5.42
2018-04-07T01:49:28.266Z,5.39
2018-04-07T01:51:55.732Z,5.34
2018-04-07T01:54:23.205Z,5.25
2018-04-07T01:56:50.675Z,5.23
2018-04-07T01:59:18.144Z,5.24
2018-04-07T02:01:45.603Z,5.24
2018-04-07T02:04:13.060Z,5.24
2018-04-07T02:06:40.721Z,5.20
2018-04-07T02:09:08.203Z,5.17
2018-04-07T02:11:35.753Z,5.08
2018-04-07T02:14:03.232Z,5.02
2018-04-07T02:16:30.697Z,4.93
2018-04-07T02:18:58.152Z,4.96
2018-04-07T02:21:25.619Z,4.89
2018-04-07T02:23:53.144Z,4.77
2018-04-07T02:26:20.624Z,4.70
2018-04-07T02:28:48.145Z,4.59
2018-04-07T02:31:15.604Z,4.52
2018-04-07T02:33:43.077Z,4.44
2018-04-07T02:36:10.567Z,4.35
2018-04-07T02:38:38.028Z,4.31
2018-04-07T02:41:05.500Z,4.27
2018-04-07T02:43:32.967Z,4.22
2018-04-07T02:46:00.417Z,4.22
2018-04-07T02:48:27.901Z,4.20
2018-04-07T02:50:55.365Z,4.16
2018-04-07T02:53:22.821Z,4.12
2018-04-07T02:55:50.284Z,4.06
2018-04-07T02:58:17.736Z,4.00
2018-04-07T03:00:45.195Z,4.00
2018-04-07T03:03:12.656Z,3.96
2018-04-07T03:05:40.111Z,3.93
2018-04-07T03:08:07.593Z,3.89
2018-04-07T03:10:35.190Z,3.85
2018-04-07T03:13:02.645Z,3.82
2018-04-07T03:15:30.123Z,3.79
2018-04-07T03:17:57.587Z,3.81
2018-04-07T03:20:25.064Z,3.82
2018-04-07T03:22:52.566Z,3.88
2018-04-07T03:25:20.035Z,3.92
2018-04-07T03:27:47.491Z,3.92
2018-04-07T03:30:14.968Z,3.90
2018-04-07T03:32:42.477Z,3.88
2018-04-07T03:35:09.947Z,3.85
2018-04-07T03:37:37.412Z,3.83
2018-04-07T03:40:04.873Z,3.82
2018-04-07T03:42:32.352Z,3.81
2018-04-07T03:44:59.811Z,3.77
2018-04-07T03:47:27.267Z,3.83
2018-04-07T03:49:54.736Z,3.83
2018-04-07T03:52:22.199Z,3.85
2018-04-07T03:54:49.677Z,3.86
2018-04-07T03:57:17.152Z,3.89
2018-04-07T03:59:44.681Z,3.94
2018-04-07T04:02:12.149Z,3.95
2018-04-07T04:04:39.837Z,3.99
2018-04-07T04:07:07.383Z,4.02
2018-04-07T04:09:34.835Z,4.07
2018-04-07T04:12:02.333Z,4.08
2018-04-07T04:14:29.789Z,4.06
2018-04-07T04:16:57.260Z,4.04
2018-04-07T04:19:24.732Z,4.08
2018-04-07T04:21:53.651Z,4.14
2018-04-07T04:24:21.164Z,4.16
2018-04-07T04:26:48.623Z,4.22
2018-04-07T04:29:16.084Z,4.28
2018-04-07T04:31:43.556Z,4.40
2018-04-07T04:34:11.016Z,4.36
2018-04-07T04:36:38.481Z,4.40
2018-04-07T04:39:05.988Z,4.45
2018-04-07T04:41:34.142Z,4.57
2018-04-07T04:44:01.596Z,4.65
2018-04-07T04:46:29.059Z,4.73
2018-04-07T04:48:56.542Z,4.75
2018-04-07T04:51:24.018Z,4.76
2018-04-07T04:53:51.476Z,4.85
2018-04-07T04:56:19.078Z,4.88
2018-04-07T04:58:46.548Z,4.90
2018-04-07T05:01:14.011Z,5.02
2018-04-07T05:03:41.504Z,5.14
2018-04-07T05:06:08.984Z,5.23
2018-04-07T05:08:36.455Z,5.29
2018-04-07T05:11:03.941Z,5.38
2018-04-07T05:13:31.391Z,5.52
2018-04-07T05:15:58.893Z,5.64
2018-04-07T05:18:26.361Z,5.71
2018-04-07T05:20:53.817Z,5.81
2018-04-07T05:23:21.292Z,5.90
2018-04-07T05:25:49.998Z,5.99
2018-04-07T05:28:17.463Z,6.08
2018-04-07T05:30:45.018Z,6.14
2018-04-07T05:33:12.489Z,6.07
2018-04-07T05:35:39.962Z,6.03
2018-04-07T05:38:07.464Z,5.95
2018-04-07T05:40:34.928Z,5.85
2018-04-07T05:43:02.411Z,5.82
2018-04-07T05:45:29.927Z,5.79
2018-04-07T05:47:58.020Z,5.78
2018-04-07T05:50:25.491Z,5.74
2018-04-07T05:52:52.972Z,5.84
2018-04-07T05:55:20.502Z,5.90
2018-04-07T05:57:47.981Z,6.11
2018-04-07T06:00:15.464Z,6.25
2018-04-07T06:02:42.942Z,6.45
2018-04-07T06:05:10.467Z,6.62
2018-04-07T06:07:37.984Z,6.74
2018-04-07T06:10:06.592Z,6.89
2018-04-07T06:12:34.069Z,7.04
2018-04-07T06:15:01.545Z,7.16
2018-04-07T06:17:29.024Z,7.33
2018-04-07T06:19:56.485Z,7.54
2018-04-07T06:22:23.949Z,7.66
2018-04-07T06:24:51.432Z,7.75
2018-04-07T06:27:18.908Z,7.81
2018-04-07T06:29:46.380Z,7.84
2018-04-07T06:32:13.839Z,8.00
2018-04-07T06:34:41.364Z,8.19
2018-04-07T06:37:08.842Z,8.30
2018-04-07T06:39:36.319Z,8.48
2018-04-07T06:42:03.818Z,8.61
2018-04-07T06:44:31.360Z,8.68
2018-04-07T06:46:58.848Z,8.74
2018-04-07T06:49:26.324Z,8.80
2018-04-07T06:51:53.795Z,8.86
2018-04-07T06:54:21.300Z,8.91
2018-04-07T06:56:48.851Z,8.97
2018-04-07T06:59:16.320Z,9.13
2018-04-07T07:01:43.814Z,9.17
2018-04-07T07:04:11.292Z,9.37
2018-04-07T07:06:38.770Z,9.46
2018-04-07T07:09:06.330Z,9.64
2018-04-07T07:11:33.838Z,9.84
2018-04-07T07:14:01.309Z,9.99
2018-04-07T07:16:28.802Z,10.07
2018-04-07T07:18:56.332Z,10.20
2018-04-07T07:21:23.837Z,10.17
2018-04-07T07:23:51.320Z,10.23
2018-04-07T07:26:18.821Z,10.19
2018-04-07T07:28:46.729Z,10.25
2018-04-07T07:31:14.267Z,10.22
2018-04-07T07:33:41.785Z,10.24
2018-04-07T07:36:09.262Z,10.24
2018-04-07T07:38:36.790Z,10.36
2018-04-07T07:41:04.265Z,10.52
2018-04-07T07:43:31.776Z,10.87
2018-04-07T07:45:59.304Z,11.34
2018-04-07T07:48:26.769Z,11.75
2018-04-07T07:50:54.376Z,12.08
2018-04-07T07:53:21.920Z,12.34
2018-04-07T07:55:49.435Z,12.65
2018-04-07T07:58:16.936Z,12.91
2018-04-07T08:00:44.429Z,13.03
2018-04-07T08:03:12.064Z,13.06
2018-04-07T08:05:39.615Z,13.17
2018-04-07T08:08:07.131Z,13.21
2018-04-07T08:10:34.726Z,13.36
2018-04-07T08:13:02.258Z,13.67
2018-04-07T08:15:29.837Z,13.88
2018-04-07T08:17:57.332Z,14.07
2018-04-07T08:20:24.886Z,14.27
2018-04-07T08:22:52.375Z,14.49
2018-04-07T08:25:19.870Z,14.73
2018-04-07T08:27:47.366Z,14.82
2018-04-07T08:30:14.912Z,14.49
2018-04-07T08:32:42.404Z,14.62
2018-04-07T08:35:09.908Z,14.70
2018-04-07T08:37:37.510Z,14.85
2018-04-07T08:40:05.010Z,15.05
2018-04-07T08:42:32.502Z,15.34
2018-04-07T08:45:00.003Z,15.37
2018-04-07T08:47:27.478Z,15.55
2018-04-07T08:49:54.958Z,15.52
2018-04-07T08:52:22.440Z,15.55
2018-04-07T08:54:49.915Z,15.95
2018-04-07T08:57:17.400Z,15.94
2018-04-07T08:59:44.889Z,15.96
2018-04-07T09:02:12.403Z,15.98
2018-04-07T09:04:39.902Z,15.80
2018-04-07T09:07:07.371Z,15.72
2018-04-07T09:09:34.835Z,15.78
2018-04-07T09:12:02.325Z,15.91
2018-04-07T09:14:29.811Z,15.88
2018-04-07T09:16:57.316Z,15.97
2018-04-07T09:19:24.892Z,16.21
2018-04-07T09:21:53.143Z,16.10
2018-04-07T09:24:20.630Z,15.90
2018-04-07T09:26:48.127Z,15.89
2018-04-07T09:29:15.590Z,15.79
2018-04-07T09:31:43.151Z,15.88
2018-04-07T09:34:10.729Z,15.90
2018-04-07T09:36:38.192Z,15.91
2018-04-07T09:39:06.448Z,15.87
2018-04-07T09:41:33.956Z,16.13
2018-04-07T09:44:01.464Z,15.81
2018-04-07T09:46:28.940Z,15.71
2018-04-07T09:48:56.424Z,15.81
2018-04-07T09:51:23.935Z,16.06
2018-04-07T09:53:51.392Z,16.25
2018-04-07T09:56:18.969Z,16.44
2018-04-07T09:58:46.822Z,16.52
2018-04-07T10:01:14.464Z,16.51
2018-04-07T10:03:41.964Z,16.62
2018-04-07T10:06:09.676Z,16.62
2018-04-07T10:08:37.222Z,16.65
2018-04-07T10:11:04.820Z,16.40
2018-04-07T10:13:32.448Z,16.27
2018-04-07T10:16:00.932Z,16.28
2018-04-07T10:18:28.447Z,16.47
2018-04-07T10:20:55.907Z,16.45
2018-04-07T10:23:23.378Z,16.38
2018-04-07T10:25:50.844Z,16.16
2018-04-07T10:28:18.435Z,16.17
2018-04-07T10:30:45.903Z,16.35
2018-04-07T10:33:13.424Z,16.58
2018-04-07T10:35:40.989Z,16.62
2018-04-07T10:38:08.517Z,16.69
2018-04-07T10:40:36.144Z,16.70
2018-04-07T10:43:03.623Z,16.69
2018-04-07T10:45:31.080Z,16.86
2018-04-07T10:47:58.564Z,16.77
2018-04-07T10:50:26.036Z,16.87
2018-04-07T10:52:53.500Z,16.78
2018-04-07T10:55:20.988Z,16.71
2018-04-07T10:57:48.453Z,16.77
2018-04-07T11:00:15.960Z,16.73
2018-04-07T11:02:43.427Z,16.79
2018-04-07T11:05:10.923Z,16.79
2018-04-07T11:07:38.440Z,16.85
2018-04-07T11:10:05.919Z,16.96
2018-04-07T11:12:33.382Z,17.25
2018-04-07T11:15:00.881Z,17.35
2018-04-07T11:17:28.338Z,17.46
2018-04-07T11:19:55.802Z,17.61
2018-04-07T11:22:23.545Z,17.71
2018-04-07T11:24:50.987Z,17.79
2018-04-07T11:27:18.450Z,17.93
2018-04-07T11:29:45.936Z,17.94
2018-04-07T11:32:13.421Z,18.09
2018-04-07T11:34:40.924Z,17.98
2018-04-07T11:37:08.410Z,17.89
2018-04-07T11:39:35.882Z,17.98
2018-04-07T11:42:03.364Z,18.13
2018-04-07T11:44:30.838Z,18.38
2018-04-07T11:46:58.280Z,18.34
2018-04-07T11:49:25.755Z,18.53
2018-04-07T11:51:53.250Z,18.83
2018-04-07T11:54:20.752Z,18.96
2018-04-07T11:56:48.230Z,19.19
2018-04-07T11:59:15.681Z,19.12
2018-04-07T12:01:43.140Z,19.09
2018-04-07T12:04:10.607Z,19.32
2018-04-07T12:06:38.063Z,19.38
2018-04-07T12:09:06.492Z,19.20
2018-04-07T12:11:33.985Z,19.28
2018-04-07T12:14:01.435Z,19.43
2018-04-07T12:16:28.936Z,19.50
2018-04-07T12:18:56.462Z,19.62
2018-04-07T12:21:23.891Z,19.45
2018-04-07T12:23:51.348Z,19.63
2018-04-07T12:26:18.816Z,19.83
2018-04-07T12:28:46.291Z,19.90
2018-04-07T12:31:13.750Z,19.95
2018-04-07T12:33:41.207Z,19.84
2018-04-07T12:36:08.678Z,19.93
2018-04-07T12:38:36.138Z,20.15
2018-04-07T12:41:03.617Z,20.28
2018-04-07T12:43:31.159Z,20.49
2018-04-07T12:45:58.627Z,20.40
2018-04-07T12:48:26.111Z,20.47
2018-04-07T12:50:53.585Z,20.78
2018-04-07T12:53:21.072Z,20.80
2018-04-07T12:55:48.559Z,20.98
2018-04-07T12:58:16.038Z,20.88
2018-04-07T13:00:43.524Z,20.96
2018-04-07T13:03:11.004Z,21.45
2018-04-07T13:05:38.463Z,21.91
2018-04-07T13:08:05.916Z,21.86
2018-04-07T13:10:33.382Z,21.80
2018-04-07T13:13:00.875Z,21.85
2018-04-07T13:15:28.345Z,21.91
2018-04-07T13:17:55.808Z,22.17
2018-04-07T13:20:23.253Z,22.38
2018-04-07T13:22:50.737Z,22.75
2018-04-07T13:25:18.235Z,23.03
2018-04-07T13:27:45.716Z,23.26
2018-04-07T13:30:13.182Z,23.46
2018-04-07T13:32:40.673Z,23.80
2018-04-07T13:35:08.134Z,23.25
2018-04-07T13:37:35.592Z,23.23
2018-04-07T13:40:03.062Z,23.01
2018-04-07T13:42:30.513Z,22.97
2018-04-07T13:44:57.989Z,23.33
2018-04-07T13:47:25.456Z,23.25
2018-04-07T13:49:52.935Z,22.54
2018-04-07T13:52:20.413Z,21.90
2018-04-07T13:54:47.966Z,21.47
2018-04-07T13:57:15.407Z,21.49
2018-04-07T13:59:42.912Z,21.23
2018-04-07T14:02:10.377Z,21.28
2018-04-07T14:04:37.831Z,21.55
2018-04-07T14:07:05.347Z,22.00
2018-04-07T14:09:32.840Z,22.66
2018-04-07T14:12:00.298Z,23.11
2018-04-07T14:14:27.782Z,23.11
2018-04-07T14:16:55.303Z,22.77
2018-04-07T14:19:22.821Z,22.39
2018-04-07T14:21:50.294Z,21.80
2018-04-07T14:24:17.844Z,21.73
2018-04-07T14:26:45.294Z,21.40
2018-04-07T14:29:12.764Z,21.25
2018-04-07T14:31:40.221Z,20.67
2018-04-07T14:34:07.695Z,20.39
2018-04-07T14:36:35.160Z,20.03
2018-04-07T14:39:02.628Z,19.89
2018-04-07T14:41:30.127Z,19.90
2018-04-07T14:43:57.584Z,19.47
2018-04-07T14:46:25.071Z,19.35
2018-04-07T14:48:52.528Z,18.98
2018-04-07T14:51:20.064Z,18.79
2018-04-07T14:53:47.540Z,18.70
2018-04-07T14:56:15.012Z,18.62
2018-04-07T14:58:42.550Z,18.53
2018-04-07T15:01:10.005Z,18.47
2018-04-07T15:03:37.472Z,18.10
2018-04-07T15:06:04.943Z,18.16
2018-04-07T15:08:32.460Z,18.20
2018-04-07T15:10:59.944Z,18.05
2018-04-07T15:13:27.462Z,18.17
2018-04-07T15:15:54.942Z,17.80
2018-04-07T15:18:22.419Z,17.88
2018-04-07T15:20:49.877Z,17.79
2018-04-07T15:23:17.353Z,17.50
2018-04-07T15:25:44.832Z,17.66
2018-04-07T15:28:12.529Z,17.61
2018-04-07T15:30:39.998Z,17.37
2018-04-07T15:33:07.469Z,17.32
2018-04-07T15:35:34.990Z,17.14
2018-04-07T15:38:02.997Z,17.13
2018-04-07T15:40:30.471Z,16.97
2018-04-07T15:42:57.934Z,16.92
2018-04-07T15:45:25.437Z,16.77
2018-04-07T15:47:52.935Z,16.64
2018-04-07T15:50:20.420Z,16.45
2018-04-07T15:52:47.895Z,16.42
2018-04-07T15:55:15.393Z,16.17
2018-04-07T15:57:42.913Z,16.00
2018-04-07T16:00:10.463Z,16.07
2018-04-07T16:02:37.953Z,16.00
2018-04-07T16:05:05.491Z,15.92
2018-04-07T16:07:33.289Z,15.92
2018-04-07T16:10:00.783Z,15.73
2018-04-07T16:12:29.364Z,15.65
2018-04-07T16:14:56.834Z,15.43
2018-04-07T16:17:24.334Z,15.44
2018-04-07T16:19:51.833Z,15.25
2018-04-07T16:22:19.329Z,15.10
2018-04-07T16:24:47.421Z,15.01
2018-04-07T16:27:14.916Z,14.89
2018-04-07T16:29:42.416Z,14.86
2018-04-07T16:32:09.956Z,14.75
2018-04-07T16:34:37.440Z,14.60
2018-04-07T16:37:04.953Z,14.55
2018-04-07T16:39:32.448Z,14.46
2018-04-07T16:42:00.039Z,14.40
2018-04-07T16:44:27.521Z,14.33
2018-04-07T16:46:55.021Z,14.28
2018-04-07T16:49:22.535Z,14.21
2018-04-07T16:51:50.112Z,14.16
2018-04-07T16:54:17.578Z,14.06
2018-04-07T16:56:45.087Z,14.01
2018-04-07T16:59:12.564Z,13.91
2018-04-07T17:01:40.140Z,13.80
2018-04-07T17:04:07.631Z,13.78
2018-04-07T17:06:35.145Z,13.67
2018-04-07T17:09:02.655Z,13.59
2018-04-07T17:11:30.147Z,13.57
2018-04-07T17:13:57.984Z,13.52
2018-04-07T17:16:25.471Z,13.48
2018-04-07T17:18:52.968Z,13.47
2018-04-07T17:21:20.531Z,13.43
2018-04-07T17:23:48.064Z,13.36
2018-04-07T17:26:15.543Z,13.24
2018-04-07T17:28:43.017Z,13.16
2018-04-07T17:31:10.496Z,13.05
2018-04-07T17:33:37.980Z,12.85
2018-04-07T17:36:05.528Z,12.78
2018-04-07T17:38:33.239Z,12.68
2018-04-07T17:41:01.996Z,12.58
2018-04-07T17:43:29.593Z,12.62
2018-04-07T17:45:57.087Z,12.64
2018-04-07T17:48:24.614Z,12.60
2018-04-07T17:50:52.080Z,12.46
2018-04-07T17:53:19.578Z,12.33
2018-04-07T17:55:47.073Z,12.22
2018-04-07T17:58:14.575Z,12.15
2018-04-07T18:00:42.075Z,12.16
2018-04-07T18:03:09.561Z,12.18
2018-04-07T18:05:37.139Z,12.23
2018-04-07T18:08:04.593Z,12.23
2018-04-07T18:10:32.099Z,12.18
2018-04-07T18:12:59.627Z,12.19
2018-04-07T18:15:27.157Z,12.09
2018-04-07T18:17:54.639Z,12.02
2018-04-07T18:20:22.112Z,11.93
2018-04-07T18:22:50.271Z,11.90
2018-04-07T18:25:17.843Z,11.84
2018-04-07T18:27:45.330Z,11.73
2018-04-07T18:30:12.821Z,11.61
2018-04-07T18:32:40.320Z,11.56
2018-04-07T18:35:07.803Z,11.45
2018-04-07T18:37:35.275Z,11.42
2018-04-07T18:40:02.786Z,11.30
2018-04-07T18:42:30.276Z,11.33
2018-04-07T18:44:57.739Z,11.23
2018-04-07T18:47:25.249Z,11.15
2018-04-07T18:49:52.779Z,11.12
2018-04-07T18:52:20.248Z,10.97
2018-04-07T18:54:47.740Z,11.06
2018-04-07T18:57:15.222Z,10.93
2018-04-07T18:59:42.730Z,10.81
2018-04-07T19:02:10.227Z,10.78
2018-04-07T19:04:37.685Z,10.79
2018-04-07T19:07:05.177Z,10.91
2018-04-07T19:09:32.715Z,10.86
2018-04-07T19:12:00.193Z,10.77
2018-04-07T19:14:27.709Z,10.63
2018-04-07T19:16:55.194Z,10.54
2018-04-07T19:19:22.667Z,10.57
2018-04-07T19:21:50.174Z,10.59
2018-04-07T19:24:17.993Z,10.56
2018-04-07T19:26:45.993Z,10.51
2018-04-07T19:29:14.923Z,10.49
2018-04-07T19:31:42.397Z,10.52
2018-04-07T19:34:09.871Z,10.54
2018-04-07T19:36:37.379Z,10.39
2018-04-07T19:39:04.925Z,10.29
2018-04-07T19:41:32.428Z,10.28
2018-04-07T19:43:59.961Z,10.31
2018-04-07T19:46:27.434Z,10.27
2018-04-07T19:48:54.928Z,10.19
2018-04-07T19:51:22.461Z,10.17
2018-04-07T19:53:49.921Z,10.15
2018-04-07T19:56:17.443Z,10.13
2018-04-07T19:58:44.940Z,10.10
2018-04-07T20:01:12.408Z,10.00
2018-04-07T20:03:39.923Z,9.97
2018-04-07T20:06:07.393Z,9.94
2018-04-07T20:08:34.893Z,9.85
2018-04-07T20:11:02.359Z,9.98
2018-04-07T20:13:30.147Z,9.87
2018-04-07T20:15:57.647Z,9.81
2018-04-07T20:18:25.111Z,10.17
2018-04-07T20:20:52.571Z,10.66
2018-04-07T20:23:20.029Z,10.88
2018-04-07T20:25:47.483Z,10.79
2018-04-07T20:28:15.013Z,10.81
2018-04-07T20:30:42.479Z,10.67
2018-04-07T20:33:09.961Z,10.51
2018-04-07T20:35:37.449Z,10.27
2018-04-07T20:38:04.909Z,10.41
2018-04-07T20:40:32.358Z,10.37
2018-04-07T20:42:59.855Z,10.11
2018-04-07T20:45:27.348Z,9.94
2018-04-07T20:47:54.841Z,9.77
2018-04-07T20:50:22.325Z,9.68
2018-04-07T20:52:49.824Z,9.65
2018-04-07T20:55:17.318Z,9.59
2018-04-07T20:57:44.803Z,9.62
2018-04-07T21:00:12.263Z,9.49
2018-04-07T21:02:39.755Z,9.32
2018-04-07T21:05:07.235Z,9.23
2018-04-07T21:07:34.800Z,9.16
2018-04-07T21:10:02.272Z,9.20
2018-04-07T21:12:29.758Z,9.15
2018-04-07T21:14:57.254Z,9.13
2018-04-07T21:17:24.738Z,9.23
2018-04-07T21:19:52.455Z,9.16
2018-04-07T21:22:19.928Z,9.11
2018-04-07T21:24:47.419Z,9.02
2018-04-07T21:27:14.884Z,9.06
2018-04-07T21:29:42.332Z,9.14
2018-04-07T21:32:09.797Z,9.13
2018-04-07T21:34:37.292Z,9.04
2018-04-07T21:37:04.886Z,8.98
2018-04-07T21:39:32.369Z,8.93
2018-04-07T21:41:59.824Z,8.93
2018-04-07T21:44:27.336Z,8.88
2018-04-07T21:46:54.795Z,8.90
2018-04-07T21:49:22.307Z,8.74
2018-04-07T21:51:49.779Z,8.69
2018-04-07T21:54:17.262Z,8.79
2018-04-07T21:56:44.765Z,8.66
2018-04-07T21:59:12.259Z,8.68
2018-04-07T22:01:39.773Z,8.77
2018-04-07T22:04:07.283Z,8.90
2018-04-07T22:06:34.739Z,8.92
2018-04-07T22:09:03.240Z,8.92
2018-04-07T22:11:30.711Z,8.85
2018-04-07T22:13:58.160Z,8.85
2018-04-07T22:16:25.649Z,8.90
2018-04-07T22:18:53.125Z,8.82
2018-04-07T22:21:20.584Z,8.82
2018-04-07T22:23:48.061Z,8.83
2018-04-07T22:26:15.540Z,8.81
2018-04-07T22:28:43.079Z,8.85
2018-04-07T22:31:10.549Z,8.75
2018-04-07T22:33:38.036Z,8.66
2018-04-07T22:36:05.581Z,8.68
2018-04-07T22:38:33.024Z,8.66
2018-04-07T22:41:00.494Z,8.60
2018-04-07T22:43:27.967Z,8.54
2018-04-07T22:45:55.459Z,8.59
2018-04-07T22:48:22.915Z,8.64
2018-04-07T22:50:50.389Z,8.67
2018-04-07T22:53:17.864Z,8.53
2018-04-07T22:55:45.350Z,8.56
2018-04-07T22:58:12.833Z,8.61
2018-04-07T23:00:40.290Z,8.69
2018-04-07T23:03:07.787Z,8.78
2018-04-07T23:05:35.272Z,8.73
2018-04-07T23:08:02.758Z,8.69
2018-04-07T23:10:30.219Z,8.82
2018-04-07T23:12:57.681Z,8.74
2018-04-07T23:15:25.159Z,8.75
2018-04-07T23:17:52.633Z,8.65
2018-04-07T23:20:20.187Z,8.51
2018-04-07T23:22:47.670Z,8.56
2018-04-07T23:25:15.164Z,8.48
2018-04-07T23:27:42.634Z,8.39
2018-04-07T23:30:10.120Z,8.39
2018-04-07T23:32:37.623Z,8.36
2018-04-07T23:35:05.103Z,8.27
2018-04-07T23:37:32.581Z,8.19
2018-04-07T23:40:00.041Z,8.18
2018-04-07T23:42:27.583Z,8.28
2018-04-07T23:44:55.046Z,8.37
2018-04-07T23:47:22.574Z,8.42
2018-04-07T23:49:50.048Z,8.56
2018-04-07T23:52:17.526Z,8.64
2018-04-07T23:54:44.995Z,8.70
2018-04-07T23:57:12.452Z,8.80
2018-04-07T23:59:39.915Z,8.79
